createdAt,value
2018-10-21T00:01:08.209Z,19.62
2018-10-21T00:03:35.702Z,19.00
2018-10-21T00:06:03.159Z,24.52
2018-10-21T00:08:30.635Z,20.37
2018-10-21T00:10:58.199Z,20.62
2018-10-21T00:13:25.641Z,19.60
2018-10-21T00:15:53.095Z,19.32
2018-10-21T00:18:20.613Z,19.23
2018-10-21T00:20:48.026Z,19.52
2018-10-21T00:23:15.778Z,20.23
2018-10-21T00:25:43.200Z,20.32
2018-10-21T00:28:10.875Z,19.52
2018-10-21T00:30:38.559Z,20.05
2018-10-21T00:33:06.068Z,20.32
2018-10-21T00:35:33.485Z,19.70
2018-10-21T00:38:01.004Z,23.18
2018-10-21T00:40:28.468Z,20.57
2018-10-21T00:42:56.142Z,21.27
2018-10-21T00:45:24.159Z,19.42
2018-10-21T00:47:51.588Z,17.90
2018-10-21T00:50:19.066Z,21.00
2018-10-21T00:52:46.551Z,21.05
2018-10-21T00:55:14.283Z,22.07
2018-10-21T00:57:41.778Z,21.23
2018-10-21T01:00:10.825Z,19.87
2018-10-21T01:02:38.462Z,20.75
2018-10-21T01:05:06.158Z,20.62
2018-10-21T01:07:33.626Z,21.80
2018-10-21T01:10:01.083Z,21.93
2018-10-21T01:12:28.507Z,22.15
2018-10-21T01:14:56.212Z,21.77
2018-10-21T01:17:23.633Z,22.95
2018-10-21T01:19:52.192Z,22.80
2018-10-21T01:22:19.879Z,22.00
2018-10-21T01:24:47.562Z,25.02
2018-10-21T01:27:15.026Z,25.27
2018-10-21T01:29:47.158Z,25.17
2018-10-21T01:32:16.027Z,23.30
2018-10-21T01:34:43.488Z,24.98
2018-10-21T01:37:11.423Z,23.12
2018-10-21T01:39:45.176Z,25.25
2018-10-21T01:42:12.837Z,25.88
2018-10-21T01:44:40.313Z,26.85
2018-10-21T01:47:07.740Z,24.52
2018-10-21T01:49:35.400Z,24.80
2018-10-21T01:52:02.875Z,26.00
2018-10-21T01:54:30.317Z,26.87
2018-10-21T01:56:57.818Z,26.05
2018-10-21T01:59:25.335Z,26.15
2018-10-21T02:01:52.794Z,27.60
2018-10-21T02:04:20.292Z,29.23
2018-10-21T02:06:47.708Z,24.70
2018-10-21T02:09:15.317Z,24.23
2018-10-21T02:11:42.994Z,27.30
2018-10-21T02:14:10.555Z,27.07
2018-10-21T02:16:38.128Z,27.10
2018-10-21T02:19:05.649Z,26.62
2018-10-21T02:21:33.429Z,28.15
2018-10-21T02:24:01.182Z,26.93
2018-10-21T02:26:28.819Z,29.37
2018-10-21T02:28:56.955Z,27.10
2018-10-21T02:31:24.438Z,28.27
2018-10-21T02:33:51.962Z,27.40
2018-10-21T02:36:19.545Z,28.62
2018-10-21T02:38:47.042Z,28.62
2018-10-21T02:41:21.130Z,30.00
2018-10-21T02:43:48.721Z,28.20
2018-10-21T02:46:16.224Z,28.35
2018-10-21T02:48:43.809Z,29.45
2018-10-21T02:51:12.129Z,28.00
2018-10-21T02:53:39.965Z,29.27
2018-10-21T02:56:08.395Z,28.30
2018-10-21T02:58:36.743Z,31.90
2018-10-21T03:01:04.473Z,30.55
2018-10-21T03:03:32.465Z,31.95
2018-10-21T03:06:00.828Z,31.12
2018-10-21T03:08:28.413Z,32.15
2018-10-21T03:10:55.923Z,30.85
2018-10-21T03:13:23.712Z,34.73
2018-10-21T03:15:51.237Z,32.13
2018-10-21T03:18:19.007Z,31.27
2018-10-21T03:20:46.606Z,30.48
2018-10-21T03:23:14.268Z,31.75
2018-10-21T03:25:41.750Z,30.35
2018-10-21T03:28:09.406Z,32.38
2018-10-21T03:30:37.054Z,31.57
2018-10-21T03:33:04.912Z,32.78
2018-10-21T03:35:32.390Z,31.90
2018-10-21T03:37:59.852Z,30.72
2018-10-21T03:40:27.326Z,31.00
2018-10-21T03:42:55.112Z,30.88
2018-10-21T03:45:23.102Z,32.85
2018-10-21T03:47:50.520Z,30.85
2018-10-21T03:50:17.996Z,31.95
2018-10-21T03:52:45.650Z,32.03
2018-10-21T03:55:13.123Z,31.17
2018-10-21T03:57:40.633Z,31.75
2018-10-21T04:00:08.610Z,33.33
2018-10-21T04:02:36.037Z,32.00
2018-10-21T04:05:03.516Z,31.60
2018-10-21T04:07:30.991Z,33.63
2018-10-21T04:09:58.428Z,33.38
2018-10-21T04:12:25.874Z,32.85
2018-10-21T04:14:53.317Z,33.00
2018-10-21T04:17:20.870Z,30.85
2018-10-21T04:19:48.354Z,33.67
2018-10-21T04:22:15.864Z,31.55
2018-10-21T04:24:43.246Z,29.75
2018-10-21T04:27:10.974Z,32.50
2018-10-21T04:29:38.380Z,34.35
2018-10-21T04:32:05.846Z,32.55
2018-10-21T04:34:33.268Z,32.48
2018-10-21T04:37:06.100Z,30.85
2018-10-21T04:39:39.375Z,33.48
2018-10-21T04:42:06.827Z,31.85
2018-10-21T04:44:34.339Z,32.25
2018-10-21T04:47:02.076Z,31.87
2018-10-21T04:49:29.307Z,31.93
2018-10-21T04:51:57.058Z,33.85
2018-10-21T04:54:24.460Z,36.08
2018-10-21T04:56:52.159Z,34.98
2018-10-21T04:59:19.822Z,35.05
2018-10-21T05:01:47.289Z,32.25
2018-10-21T05:04:14.755Z,34.27
2018-10-21T05:06:42.482Z,34.15
2018-10-21T05:09:10.774Z,32.88
2018-10-21T05:11:38.240Z,33.85
2018-10-21T05:14:05.918Z,33.67
2018-10-21T05:16:33.762Z,35.55
2018-10-21T05:19:01.464Z,32.90
2018-10-21T05:21:29.109Z,32.42
2018-10-21T05:23:56.893Z,35.30
2018-10-21T05:26:24.335Z,35.08
2018-10-21T05:28:51.807Z,34.43
2018-10-21T05:31:19.253Z,34.90
2018-10-21T05:33:46.729Z,34.78
2018-10-21T05:36:14.208Z,30.27
2018-10-21T05:38:41.635Z,32.48
2018-10-21T05:41:09.097Z,34.20
2018-10-21T05:43:36.548Z,32.48
2018-10-21T05:46:04.012Z,32.40
2018-10-21T05:48:31.928Z,35.88
2018-10-21T05:50:59.411Z,36.88
2018-10-21T05:53:26.827Z,31.17
2018-10-21T05:55:54.484Z,33.78
2018-10-21T05:58:22.013Z,32.88
2018-10-21T06:00:49.652Z,33.75
2018-10-21T06:03:17.112Z,31.57
2018-10-21T06:05:46.079Z,32.70
2018-10-21T06:08:13.597Z,34.15
2018-10-21T06:10:41.518Z,33.35
2018-10-21T06:13:09.116Z,33.85
2018-10-21T06:15:36.653Z,33.13
2018-10-21T06:18:05.729Z,32.75
2018-10-21T06:20:34.938Z,37.20
2018-10-21T06:23:02.410Z,34.48
2018-10-21T06:25:29.903Z,32.17
2018-10-21T06:27:57.557Z,33.85
2018-10-21T06:30:25.018Z,34.98
2018-10-21T06:32:52.462Z,33.88
2018-10-21T06:35:19.928Z,34.10
2018-10-21T06:37:47.432Z,35.43
2018-10-21T06:40:14.980Z,34.30
2018-10-21T06:42:42.468Z,32.23
2018-10-21T06:45:11.417Z,32.70
2018-10-21T06:47:38.723Z,32.17
2018-10-21T06:50:06.704Z,32.08
2018-10-21T06:52:34.466Z,31.05
2018-10-21T06:55:02.327Z,34.38
2018-10-21T06:57:30.031Z,31.77
2018-10-21T06:59:58.390Z,34.33
2018-10-21T07:02:25.871Z,30.48
2018-10-21T07:04:53.347Z,32.93
2018-10-21T07:07:20.941Z,32.10
2018-10-21T07:09:48.407Z,31.97
2018-10-21T07:12:15.884Z,33.63
2018-10-21T07:14:44.362Z,32.10
2018-10-21T07:17:11.802Z,33.73
2018-10-21T07:19:39.456Z,32.78
2018-10-21T07:22:10.866Z,33.00
2018-10-21T07:24:38.511Z,32.90
2018-10-21T07:27:06.450Z,32.10
2018-10-21T07:29:33.943Z,32.25
2018-10-21T07:32:01.400Z,34.27
2018-10-21T07:34:28.894Z,34.80
2018-10-21T07:36:56.282Z,31.07
2018-10-21T07:39:23.812Z,31.27
2018-10-21T07:41:51.279Z,33.90
2018-10-21T07:44:18.761Z,32.85
2018-10-21T07:46:46.238Z,32.03
2018-10-21T07:49:13.767Z,31.27
2018-10-21T07:51:42.420Z,33.30
2018-10-21T07:54:13.036Z,34.20
2018-10-21T07:56:41.342Z,35.60
2018-10-21T07:59:11.553Z,33.13
2018-10-21T08:01:39.179Z,32.13
2018-10-21T08:04:06.833Z,32.43
2018-10-21T08:06:39.861Z,33.63
2018-10-21T08:09:10.018Z,33.53
2018-10-21T08:11:37.585Z,34.20
2018-10-21T08:14:05.090Z,31.47
2018-10-21T08:16:32.726Z,31.57
2018-10-21T08:19:00.219Z,32.77
2018-10-21T08:21:27.636Z,33.67
2018-10-21T08:23:55.699Z,34.87
2018-10-21T08:26:23.371Z,35.00
2018-10-21T08:28:51.195Z,34.13
2018-10-21T08:31:19.165Z,33.50
2018-10-21T08:33:47.774Z,35.70
2018-10-21T08:36:15.390Z,32.63
2018-10-21T08:38:43.716Z,33.40
2018-10-21T08:41:13.291Z,33.43
2018-10-21T08:43:40.701Z,34.93
2018-10-21T08:46:08.110Z,34.50
2018-10-21T08:48:36.285Z,34.43
2018-10-21T08:51:05.144Z,33.73
2018-10-21T08:53:32.915Z,32.57
2018-10-21T08:56:00.994Z,34.63
2018-10-21T08:58:28.716Z,34.40
2018-10-21T09:00:56.552Z,34.93
2018-10-21T09:03:24.441Z,34.70
2018-10-21T09:05:51.891Z,36.17
2018-10-21T09:08:19.666Z,34.87
2018-10-21T09:10:47.525Z,34.07
2018-10-21T09:13:15.552Z,34.00
2018-10-21T09:15:43.532Z,31.17
2018-10-21T09:18:12.649Z,33.27
2018-10-21T09:20:40.154Z,32.00
2018-10-21T09:23:07.594Z,33.57
2018-10-21T09:25:36.661Z,33.67
2018-10-21T09:28:04.282Z,31.27
2018-10-21T09:30:31.703Z,30.73
2018-10-21T09:32:59.396Z,31.47
2018-10-21T09:35:27.316Z,31.63
2018-10-21T09:37:54.760Z,32.90
2018-10-21T09:40:22.604Z,31.70
2018-10-21T09:42:50.353Z,31.53
2018-10-21T09:45:19.099Z,31.47
2018-10-21T09:47:46.861Z,30.80
2018-10-21T09:50:14.642Z,26.93
2018-10-21T09:52:42.144Z,26.60
2018-10-21T09:55:14.803Z,31.33
2018-10-21T09:57:42.877Z,26.43
2018-10-21T10:00:10.299Z,24.70
2018-10-21T10:02:43.053Z,25.93
2018-10-21T10:05:10.509Z,27.87
2018-10-21T10:07:38.149Z,27.83
2018-10-21T10:10:06.694Z,28.67
2018-10-21T10:12:34.300Z,29.50
2018-10-21T10:15:01.687Z,26.77
2018-10-21T10:17:29.518Z,27.23
2018-10-21T10:19:57.382Z,26.33
2018-10-21T10:22:24.971Z,24.90
2018-10-21T10:24:52.519Z,24.67
2018-10-21T10:27:19.976Z,24.37
2018-10-21T10:29:47.609Z,24.10
2018-10-21T10:32:15.038Z,24.20
2018-10-21T10:34:43.012Z,24.57
2018-10-21T10:37:10.559Z,24.10
2018-10-21T10:39:38.079Z,23.33
2018-10-21T10:42:05.813Z,21.93
2018-10-21T10:44:33.206Z,21.47
2018-10-21T10:47:00.724Z,21.90
2018-10-21T10:49:28.732Z,22.60
2018-10-21T10:51:56.301Z,21.63
2018-10-21T10:54:23.838Z,20.87
2018-10-21T10:56:51.343Z,21.40
2018-10-21T10:59:18.866Z,21.03
2018-10-21T11:01:46.434Z,21.03
2018-10-21T11:04:14.055Z,21.63
2018-10-21T11:06:41.568Z,21.63
2018-10-21T11:09:10.391Z,20.10
2018-10-21T11:11:37.864Z,17.63
2018-10-21T11:14:05.373Z,17.70
2018-10-21T11:16:33.015Z,17.93
2018-10-21T11:19:01.185Z,19.97
2018-10-21T11:21:28.653Z,22.30
2018-10-21T11:23:56.122Z,22.90
2018-10-21T11:26:23.828Z,20.83
2018-10-21T11:28:51.413Z,22.37
2018-10-21T11:31:19.006Z,22.07
2018-10-21T11:33:46.718Z,20.47
2018-10-21T11:36:14.535Z,21.73
2018-10-21T11:38:42.022Z,21.50
2018-10-21T11:41:09.763Z,21.20
2018-10-21T11:43:37.217Z,19.60
2018-10-21T11:46:05.684Z,18.90
2018-10-21T11:48:33.191Z,18.47
2018-10-21T11:51:01.244Z,20.63
2018-10-21T11:53:30.113Z,19.37
2018-10-21T11:55:57.703Z,20.80
2018-10-21T11:58:25.114Z,21.97
2018-10-21T12:00:52.735Z,19.10
2018-10-21T12:03:20.188Z,18.87
2018-10-21T12:05:47.640Z,19.47
2018-10-21T12:08:15.128Z,21.37
2018-10-21T12:10:42.616Z,19.93
2018-10-21T12:13:10.199Z,19.57
2018-10-21T12:15:37.727Z,17.20
2018-10-21T12:18:05.467Z,16.70
2018-10-21T12:20:32.873Z,18.40
2018-10-21T12:23:00.421Z,20.67
2018-10-21T12:25:27.878Z,20.10
2018-10-21T12:27:55.390Z,20.67
2018-10-21T12:30:22.800Z,18.43
2018-10-21T12:32:50.469Z,18.57
2018-10-21T12:35:18.134Z,21.00
2018-10-21T12:37:45.701Z,19.10
2018-10-21T12:40:13.212Z,15.37
2018-10-21T12:42:40.789Z,13.07
2018-10-21T12:45:09.019Z,14.70
2018-10-21T12:47:36.534Z,11.93
2018-10-21T12:50:04.024Z,10.57
2018-10-21T12:52:31.474Z,9.53
2018-10-21T12:54:58.923Z,9.70
2018-10-21T12:57:26.665Z,7.73
2018-10-21T12:59:54.311Z,7.80
2018-10-21T13:02:21.829Z,7.67
2018-10-21T13:04:49.150Z,6.77
2018-10-21T13:07:16.659Z,5.80
2018-10-21T13:09:43.977Z,8.10
2018-10-21T13:12:11.369Z,6.70
2018-10-21T13:14:39.274Z,6.63
2018-10-21T13:17:06.678Z,6.53
2018-10-21T13:19:35.119Z,7.00
2018-10-21T13:22:05.550Z,6.90
2018-10-21T13:24:33.429Z,7.28
2018-10-21T13:27:01.493Z,7.00
2018-10-21T13:29:28.944Z,7.10
2018-10-21T13:31:56.416Z,8.40
2018-10-21T13:34:24.367Z,9.23
2018-10-21T13:36:52.075Z,10.20
2018-10-21T13:39:19.588Z,9.05
2018-10-21T13:41:47.026Z,8.80
2018-10-21T13:44:14.922Z,8.57
2018-10-21T13:46:42.687Z,7.80
2018-10-21T13:49:10.313Z,8.90
2018-10-21T13:51:38.337Z,8.73
2018-10-21T13:54:06.121Z,8.30
2018-10-21T13:56:33.581Z,9.50
2018-10-21T13:59:01.274Z,8.90
2018-10-21T14:01:29.158Z,9.03
2018-10-21T14:03:56.886Z,9.33
2018-10-21T14:06:24.565Z,8.50
2018-10-21T14:08:52.009Z,8.87
2018-10-21T14:11:21.887Z,10.00
2018-10-21T14:13:50.331Z,9.90
2018-10-21T14:16:18.801Z,10.60
2018-10-21T14:18:46.184Z,10.93
2018-10-21T14:21:13.602Z,10.20
2018-10-21T14:23:41.299Z,10.80
2018-10-21T14:26:08.684Z,9.93
2018-10-21T14:28:36.207Z,11.30
2018-10-21T14:31:04.039Z,10.53
2018-10-21T14:33:31.432Z,11.40
2018-10-21T14:35:59.052Z,9.30
2018-10-21T14:38:26.791Z,10.23
2018-10-21T14:40:54.186Z,9.73
2018-10-21T14:43:21.679Z,9.97
2018-10-21T14:45:49.404Z,10.80
2018-10-21T14:48:16.858Z,10.55
2018-10-21T14:50:44.251Z,10.13
2018-10-21T14:53:11.891Z,10.50
2018-10-21T14:55:39.672Z,10.90
2018-10-21T14:58:07.001Z,8.70
2018-10-21T15:00:34.497Z,9.78
2018-10-21T15:03:02.115Z,9.33
2018-10-21T15:05:29.521Z,9.13
2018-10-21T15:07:57.048Z,8.80
2018-10-21T15:10:24.423Z,10.50
2018-10-21T15:12:51.733Z,8.98
2018-10-21T15:15:19.532Z,14.73
2018-10-21T15:17:46.898Z,10.03
2018-10-21T15:20:14.337Z,10.10
2018-10-21T15:22:41.649Z,9.45
2018-10-21T15:25:10.428Z,9.93
2018-10-21T15:27:37.832Z,9.15
2018-10-21T15:30:06.274Z,9.50
2018-10-21T15:32:33.688Z,9.73
2018-10-21T15:35:01.334Z,8.85
2018-10-21T15:37:28.933Z,9.53
2018-10-21T15:39:56.355Z,10.40
2018-10-21T15:42:23.711Z,9.45
2018-10-21T15:44:51.686Z,10.63
2018-10-21T15:47:19.042Z,10.50
2018-10-21T15:49:46.658Z,10.70
2018-10-21T15:52:14.039Z,10.70
2018-10-21T15:54:41.380Z,11.33
2018-10-21T15:57:08.775Z,10.90
2018-10-21T15:59:36.347Z,10.40
2018-10-21T16:02:03.799Z,9.90
2018-10-21T16:04:31.124Z,9.90
2018-10-21T16:06:58.534Z,9.30
2018-10-21T16:09:25.952Z,9.93
2018-10-21T16:11:53.503Z,11.22
2018-10-21T16:14:20.896Z,10.78
2018-10-21T16:16:48.318Z,10.55
2018-10-21T16:19:15.728Z,9.03
2018-10-21T16:21:43.404Z,10.28
2018-10-21T16:24:10.817Z,9.23
2018-10-21T16:26:38.497Z,10.53
2018-10-21T16:29:06.099Z,9.40
2018-10-21T16:31:33.465Z,11.45
2018-10-21T16:34:01.073Z,9.63
2018-10-21T16:36:30.600Z,10.00
2018-10-21T16:38:59.431Z,11.93
2018-10-21T16:41:29.941Z,11.30
2018-10-21T16:43:58.072Z,10.08
2018-10-21T16:46:25.736Z,12.33
2018-10-21T16:48:53.622Z,12.18
2018-10-21T16:51:21.409Z,12.58
2018-10-21T16:53:49.359Z,11.95
2018-10-21T16:56:16.840Z,13.83
2018-10-21T16:58:44.655Z,11.43
2018-10-21T17:01:12.537Z,12.90
2018-10-21T17:03:40.542Z,12.82
2018-10-21T17:06:08.053Z,13.28
2018-10-21T17:08:35.639Z,14.00
2018-10-21T17:11:03.405Z,13.32
2018-10-21T17:13:31.833Z,15.00
2018-10-21T17:15:59.640Z,14.13
2018-10-21T17:18:27.315Z,13.65
2018-10-21T17:20:55.302Z,14.75
2018-10-21T17:23:22.928Z,14.45
2018-10-21T17:25:50.769Z,13.43
2018-10-21T17:28:18.280Z,14.25
2018-10-21T17:30:45.800Z,13.95
2018-10-21T17:33:13.353Z,13.83
2018-10-21T17:35:41.511Z,13.70
2018-10-21T17:38:09.557Z,14.95
2018-10-21T17:40:37.678Z,17.00
2018-10-21T17:43:05.317Z,14.80
2018-10-21T17:45:33.084Z,17.92
2018-10-21T17:48:00.625Z,18.75
2018-10-21T17:50:28.090Z,16.35
2018-10-21T17:52:55.573Z,17.40
2018-10-21T17:55:23.542Z,20.08
2018-10-21T17:57:51.088Z,18.95
2018-10-21T18:00:18.865Z,20.43
2018-10-21T18:02:48.155Z,20.00
2018-10-21T18:05:17.468Z,22.32
2018-10-21T18:07:46.552Z,19.48
2018-10-21T18:10:15.077Z,21.10
2018-10-21T18:12:42.446Z,21.25
2018-10-21T18:15:12.660Z,21.65
2018-10-21T18:17:41.004Z,21.95
2018-10-21T18:20:10.575Z,20.08
2018-10-21T18:22:38.135Z,21.60
2018-10-21T18:25:06.020Z,25.37
2018-10-21T18:27:33.455Z,26.37
2018-10-21T18:30:00.843Z,27.95
2018-10-21T18:32:28.341Z,27.42
2018-10-21T18:34:55.815Z,23.07
2018-10-21T18:37:23.565Z,22.05
2018-10-21T18:39:51.166Z,21.50
2018-10-21T18:42:18.804Z,23.18
2018-10-21T18:44:46.137Z,20.88
2018-10-21T18:47:13.619Z,21.40
2018-10-21T18:49:41.032Z,22.32
2018-10-21T18:52:09.505Z,23.05
2018-10-21T18:54:36.975Z,21.73
2018-10-21T18:57:05.053Z,22.25
2018-10-21T18:59:32.539Z,21.82
2018-10-21T19:02:00.401Z,23.80
2018-10-21T19:04:27.817Z,22.10
2018-10-21T19:06:55.287Z,20.15
2018-10-21T19:09:22.674Z,20.35
2018-10-21T19:11:50.471Z,21.40
2018-10-21T19:14:18.009Z,21.40
2018-10-21T19:16:45.703Z,21.42
2018-10-21T19:19:13.444Z,21.48
2018-10-21T19:21:41.008Z,20.52
2018-10-21T19:24:08.524Z,19.95
2018-10-21T19:26:35.935Z,21.37
2018-10-21T19:29:03.442Z,20.52
2018-10-21T19:31:31.244Z,21.15
2018-10-21T19:33:58.716Z,21.15
2018-10-21T19:36:26.271Z,20.68
2018-10-21T19:38:53.628Z,20.55
2018-10-21T19:41:21.187Z,20.92
2018-10-21T19:43:49.632Z,20.72
2018-10-21T19:46:17.072Z,19.77
2018-10-21T19:48:44.723Z,20.37
2018-10-21T19:51:12.278Z,19.10
2018-10-21T19:53:40.028Z,21.57
2018-10-21T19:56:08.463Z,20.88
2018-10-21T19:58:35.911Z,20.70
2018-10-21T20:01:03.374Z,20.02
2018-10-21T20:03:30.968Z,22.15
2018-10-21T20:05:58.322Z,23.45
2018-10-21T20:08:25.966Z,23.55
2018-10-21T20:10:53.731Z,21.52
2018-10-21T20:13:21.399Z,21.17
2018-10-21T20:15:48.868Z,22.50
2018-10-21T20:18:16.408Z,21.40
2018-10-21T20:20:44.426Z,21.65
2018-10-21T20:23:12.014Z,21.23
2018-10-21T20:25:40.323Z,20.80
2018-10-21T20:28:08.403Z,22.05
2018-10-21T20:30:36.781Z,21.33
2018-10-21T20:33:05.073Z,23.05
2018-10-21T20:35:32.573Z,22.60
2018-10-21T20:38:00.627Z,24.65
2018-10-21T20:40:28.496Z,22.02
2018-10-21T20:42:56.107Z,21.55
2018-10-21T20:45:23.623Z,22.35
2018-10-21T20:47:51.071Z,21.60
2018-10-21T20:50:18.671Z,22.00
2018-10-21T20:52:46.228Z,23.90
2018-10-21T20:55:13.714Z,22.70
2018-10-21T20:57:41.169Z,22.20
2018-10-21T21:00:08.694Z,22.50
2018-10-21T21:02:36.302Z,22.82
2018-10-21T21:05:04.044Z,22.75
2018-10-21T21:07:32.100Z,23.52
2018-10-21T21:09:59.676Z,21.45
2018-10-21T21:12:27.155Z,23.02
2018-10-21T21:14:54.823Z,23.98
2018-10-21T21:17:22.269Z,21.45
2018-10-21T21:19:50.243Z,22.98
2018-10-21T21:22:18.099Z,20.17
2018-10-21T21:24:45.879Z,20.85
2018-10-21T21:27:13.530Z,21.60
2018-10-21T21:29:40.991Z,21.60
2018-10-21T21:32:08.707Z,22.10
2018-10-21T21:34:36.734Z,23.07
2018-10-21T21:37:04.411Z,23.55
2018-10-21T21:39:32.031Z,22.02
2018-10-21T21:42:00.028Z,22.07
2018-10-21T21:44:27.542Z,22.95
2018-10-21T21:46:55.016Z,21.55
2018-10-21T21:49:22.839Z,22.45
2018-10-21T21:51:50.368Z,24.02
2018-10-21T21:54:18.172Z,21.15
2018-10-21T21:56:46.642Z,22.70
2018-10-21T21:59:14.192Z,22.40
2018-10-21T22:01:41.898Z,23.45
2018-10-21T22:04:09.634Z,23.47
2018-10-21T22:06:37.314Z,23.80
2018-10-21T22:09:07.260Z,23.75
2018-10-21T22:11:34.768Z,23.75
2018-10-21T22:14:02.678Z,25.27
2018-10-21T22:16:30.099Z,23.20
2018-10-21T22:18:57.828Z,23.45
2018-10-21T22:21:25.250Z,25.12
2018-10-21T22:23:52.709Z,22.60
2018-10-21T22:26:20.163Z,23.10
2018-10-21T22:28:47.624Z,25.45
2018-10-21T22:31:15.254Z,23.57
2018-10-21T22:33:42.972Z,22.80
2018-10-21T22:36:10.929Z,22.93
2018-10-21T22:38:38.459Z,23.45
2018-10-21T22:41:06.013Z,23.67
2018-10-21T22:43:33.813Z,24.37
2018-10-21T22:46:01.510Z,23.70
2018-10-21T22:48:29.136Z,23.87
2018-10-21T22:50:56.698Z,24.52
2018-10-21T22:53:24.314Z,24.77
2018-10-21T22:55:52.021Z,23.10
2018-10-21T22:58:20.336Z,24.37
2018-10-21T23:00:47.806Z,23.00
2018-10-21T23:03:15.294Z,22.65
2018-10-21T23:05:42.755Z,24.60
2018-10-21T23:08:10.223Z,23.00
2018-10-21T23:10:37.768Z,26.40
2018-10-21T23:13:05.315Z,27.75
2018-10-21T23:15:32.888Z,24.98
2018-10-21T23:18:00.416Z,25.27
2018-10-21T23:20:27.781Z,24.37
2018-10-21T23:22:57.600Z,23.92
2018-10-21T23:25:25.315Z,24.50
2018-10-21T23:27:53.754Z,25.82
2018-10-21T23:30:21.347Z,27.30
2018-10-21T23:32:48.860Z,26.68
2018-10-21T23:35:16.263Z,25.90
2018-10-21T23:37:43.953Z,25.90
2018-10-21T23:40:11.651Z,26.37
2018-10-21T23:42:39.397Z,26.05
2018-10-21T23:45:07.164Z,21.77
2018-10-21T23:47:34.828Z,24.67
2018-10-21T23:50:02.678Z,24.50
2018-10-21T23:52:32.266Z,25.65
2018-10-21T23:54:59.933Z,25.40
2018-10-21T23:57:27.630Z,24.72
2018-10-21T23:59:55.391Z,23.05
